createdAt,value
2019-04-23T00:04:35.003Z,12.2
2019-04-23T00:09:38.261Z,11.3
2019-04-23T00:14:54.572Z,11.1
2019-04-23T00:19:55.032Z,10.8
2019-04-23T00:30:09.305Z,13.4
2019-04-23T00:35:12.233Z,12.4
2019-04-23T00:40:02.348Z,12.4
2019-04-23T00:45:06.853Z,12.2
2019-04-23T00:55:27.819Z,12.9
2019-04-23T01:00:41.046Z,13.1
2019-04-23T01:05:40.873Z,13.9
2019-04-23T01:10:51.917Z,12.4
2019-04-23T01:15:52.185Z,13
2019-04-23T01:20:52.395Z,12.5
2019-04-23T01:21:53.927Z,15.4
2019-04-23T01:27:38.883Z,13.4
2019-04-23T01:32:31.280Z,15
2019-04-23T01:37:36.368Z,13.9
2019-04-23T01:47:49.451Z,14.1
2019-04-23T01:52:58.908Z,15.4
2019-04-23T01:58:25.687Z,16.1
2019-04-23T02:03:14.853Z,15.4
2019-04-23T02:08:12.457Z,14.3
2019-04-23T02:13:30.298Z,15
2019-04-23T02:18:35.483Z,16
2019-04-23T02:23:42.236Z,15.5
2019-04-23T02:28:50.893Z,15.9
2019-04-23T02:44:04.122Z,17.7
2019-04-23T02:49:04.137Z,16.3
2019-04-23T02:54:15.356Z,16.5
2019-04-23T02:59:18.617Z,19.6
2019-04-23T03:04:16.510Z,15
2019-04-23T03:09:19.933Z,15.7
2019-04-23T03:14:22.989Z,18.9
2019-04-23T03:19:23.450Z,16
2019-04-23T03:24:36.075Z,16.1
2019-04-23T03:44:55.941Z,15.2
2019-04-23T03:55:03.053Z,17.3
2019-04-23T04:00:10.942Z,16
2019-04-23T04:05:00.281Z,17.2
2019-04-23T04:10:15.487Z,18
2019-04-23T04:15:30.844Z,16.9
2019-04-23T04:20:24.245Z,17.7
2019-04-23T04:25:33.477Z,18.4
2019-04-23T04:35:37.562Z,17.1
2019-04-23T04:40:36.263Z,15.7
2019-04-23T04:45:40.042Z,17.1
2019-04-23T04:50:41.362Z,18.8
2019-04-23T04:55:44.807Z,16.9
2019-04-23T05:00:52.339Z,17.8
2019-04-23T05:06:04.751Z,18.8
2019-04-23T05:10:59.345Z,18.4
2019-04-23T05:15:57.890Z,18.9
2019-04-23T05:25:57.667Z,17.5
2019-04-23T05:31:05.562Z,18.7
2019-04-23T05:46:32.682Z,18.6
2019-04-23T05:51:41.812Z,17.8
2019-04-23T05:56:38.106Z,17.1
2019-04-23T06:11:56.097Z,18.9
2019-04-23T06:17:07.797Z,19.7
2019-04-23T06:27:17.961Z,16.7
2019-04-23T06:32:18.816Z,17.3
2019-04-23T06:37:36.636Z,22.6
2019-04-23T06:42:42.647Z,18.3
2019-04-23T06:47:53.810Z,25.5
2019-04-23T06:52:38.618Z,39.1
2019-04-23T06:57:45.838Z,38.3
2019-04-23T07:02:59.490Z,54.1
2019-04-23T07:08:02.554Z,70.3
2019-04-23T07:13:10.152Z,46.4
2019-04-23T07:18:07.242Z,38.5
2019-04-23T07:23:18.861Z,50.7
2019-04-23T07:28:25.875Z,42.9
2019-04-23T07:33:34.519Z,56.7
2019-04-23T07:38:47.054Z,66.2
2019-04-23T07:43:37.270Z,71.7
2019-04-23T07:48:39.949Z,87
2019-04-23T07:54:07.384Z,70.3
2019-04-23T07:58:52.247Z,59.6
2019-04-23T08:04:01.182Z,50.1
2019-04-23T08:09:17.011Z,67.9
2019-04-23T08:14:40.236Z,39.3
2019-04-23T08:19:31.029Z,51.9
2019-04-23T08:24:37.743Z,25.9
2019-04-23T08:28:22.728Z,40.8
2019-04-23T08:33:16.753Z,24.7
2019-04-23T08:38:25.629Z,51.1
2019-04-23T08:43:29.110Z,37.4
2019-04-23T08:48:40.948Z,51.7
2019-04-23T08:58:39.400Z,26.1
2019-04-23T09:03:38.739Z,21.5
2019-04-23T09:08:49.365Z,21.3
2019-04-23T09:13:55.494Z,23.7
2019-04-23T09:19:08.689Z,60.3
2019-04-23T09:23:55.988Z,40.5
2019-04-23T09:29:03.710Z,49
2019-04-23T09:34:16.390Z,29.2
2019-04-23T09:44:53.511Z,14.3
2019-04-23T09:49:32.280Z,10.2
2019-04-23T09:54:39.608Z,8.8
2019-04-23T10:04:34.738Z,6.3
2019-04-23T10:09:24.523Z,8.9
2019-04-23T10:14:26.123Z,8.2
2019-04-23T10:19:35.020Z,12.6
2019-04-23T10:24:43.647Z,8.2
2019-04-23T10:29:52.193Z,8.5
2019-04-23T10:35:10.028Z,8.9
2019-04-23T10:40:07.867Z,8.5
2019-04-23T10:45:19.001Z,8
2019-04-23T10:55:46.327Z,7.8
2019-04-23T11:00:52.081Z,7.9
2019-04-23T11:10:54.543Z,7.9
2019-04-23T11:16:08.207Z,6.7
2019-04-23T11:26:21.445Z,6.8
2019-04-23T11:31:23.520Z,6.7
2019-04-23T11:46:45.215Z,8.6
2019-04-23T12:12:05.689Z,9.2
2019-04-23T12:17:12.453Z,7.5
2019-04-23T12:27:13.361Z,8.5
2019-04-23T12:32:33.753Z,7.6
2019-04-23T12:37:20.779Z,8.4
2019-04-23T12:42:40.892Z,10.5
2019-04-23T12:47:35.955Z,8.5
2019-04-23T12:52:33.744Z,7.2
2019-04-23T12:57:33.924Z,7.7
2019-04-23T13:02:44.091Z,6.7
2019-04-23T13:13:01.203Z,7.5
2019-04-23T13:17:53.481Z,6.4
2019-04-23T13:23:00.551Z,9
2019-04-23T13:38:24.797Z,7.6
2019-04-23T13:43:29.322Z,6.9
2019-04-23T13:48:14.522Z,8
2019-04-23T14:03:40.363Z,7.6
2019-04-23T14:14:03.320Z,10.8
2019-04-23T14:29:03.890Z,10.2
2019-04-23T14:34:14.132Z,13.4
2019-04-23T14:39:30.608Z,9.6
2019-04-23T14:44:29.169Z,10
2019-04-23T14:49:58.576Z,10.5
2019-04-23T14:55:21.937Z,8.4
2019-04-23T14:59:52.850Z,10.5
2019-04-23T15:05:03.379Z,10.1
2019-04-23T15:10:08.325Z,12.9
2019-04-23T15:15:12.174Z,10.5
2019-04-23T15:20:13.201Z,10.6
2019-04-23T15:30:13.936Z,11.8
2019-04-23T15:40:31.390Z,12.1
2019-04-23T15:45:51.611Z,10.9
2019-04-23T15:51:03.891Z,11
2019-04-23T15:56:11.348Z,9.5
2019-04-23T16:01:14.064Z,12
2019-04-23T16:05:41.234Z,11.7
2019-04-23T16:11:15.305Z,12.5
2019-04-23T16:16:14.091Z,11.6
2019-04-23T16:21:28.763Z,11.1
2019-04-23T16:26:22.577Z,12.3
2019-04-23T16:36:29.971Z,13.1
2019-04-23T16:41:30.620Z,12
2019-04-23T16:46:37.304Z,12.3
2019-04-23T16:51:45.253Z,11.1
2019-04-23T17:02:07.688Z,11.4
2019-04-23T17:07:06.302Z,12.7
2019-04-23T17:12:16.564Z,12.3
2019-04-23T17:17:24.573Z,15.1
2019-04-23T17:22:31.125Z,13.8
2019-04-23T17:28:03.175Z,12
2019-04-23T17:32:42.931Z,10.4
2019-04-23T17:38:14.203Z,11.2
2019-04-23T17:42:54.207Z,10.9
2019-04-23T17:48:05.325Z,11.8
2019-04-23T17:53:10.743Z,11.2
2019-04-23T17:58:14.039Z,11.7
2019-04-23T18:03:12.603Z,11.8
2019-04-23T18:08:26.362Z,10.5
2019-04-23T18:18:44.054Z,12.5
2019-04-23T18:23:46.299Z,10.8
2019-04-23T18:28:54.175Z,13.7
2019-04-23T18:34:06.688Z,11.7
2019-04-23T18:44:10.938Z,13.7
2019-04-23T18:49:19.670Z,11.9
2019-04-23T18:54:21.367Z,11.2
2019-04-23T18:57:56.693Z,11.5
2019-04-23T19:02:53.580Z,9.5
2019-04-23T19:08:06.762Z,10.8
2019-04-23T19:13:08.926Z,11.9
2019-04-23T19:18:11.428Z,12
2019-04-23T19:28:34.360Z,15
2019-04-23T19:33:28.715Z,10.9
2019-04-23T19:38:24.911Z,11.4
2019-04-23T19:43:41.342Z,11.9
2019-04-23T19:58:44.713Z,17
2019-04-23T20:03:49.237Z,13.9
2019-04-23T20:13:55.192Z,13.9
2019-04-23T20:19:14.592Z,12.4
2019-04-23T20:34:58.609Z,15.4
2019-04-23T20:40:03.949Z,14.2
2019-04-23T20:45:04.118Z,13.1
2019-04-23T20:50:02.699Z,11.5
2019-04-23T20:55:14.715Z,11.8
2019-04-23T21:00:19.346Z,14.2
2019-04-23T21:05:20.037Z,12.4
2019-04-23T21:15:38.668Z,15.2
2019-04-23T21:25:43.704Z,15.3
2019-04-23T21:31:00.515Z,15.8
2019-04-23T21:36:10.438Z,15.5
2019-04-23T21:46:14.389Z,14.3
2019-04-23T21:51:30.178Z,11.7
2019-04-23T21:56:15.062Z,17.5
2019-04-23T22:01:26.296Z,11.8
2019-04-23T22:06:27.028Z,14
2019-04-23T22:16:48.353Z,14.6
2019-04-23T22:21:48.619Z,14
2019-04-23T22:26:44.453Z,14.2
2019-04-23T22:31:50.965Z,12.1
2019-04-23T22:37:10.594Z,14.3
2019-04-23T22:47:00.510Z,15.7
2019-04-23T22:52:08.536Z,12.8
2019-04-23T22:57:08.786Z,15.8
2019-04-23T23:02:24.683Z,12.4
2019-04-23T23:07:37.145Z,15.2
2019-04-23T23:17:58.207Z,13.4
2019-04-23T23:22:56.868Z,15
2019-04-23T23:27:57.179Z,12.8
2019-04-23T23:32:55.429Z,13.2
2019-04-23T23:38:07.072Z,17.2
2019-04-23T23:48:12.630Z,12.9
2019-04-23T23:53:29.249Z,13.4
2019-04-23T23:58:28.662Z,14.5
